LKCV

Čáslav Air Base Airport

Čáslav, Czech Republic
TAF LKCV 251100Z 2512/2612 31011KT 9999 SCT040 PROB30 TEMPO 2512/2515 31016KT SHRA SCT030TCU BECMG 2515/2518 35006KT CAVOK BECMG 2523/2602 VRB02KT
Issued Valid From Valid To
Sep-25 @ 11:00 UTC
(6 hours ago)
Sep-25 @ 12:00 UTC
(5 hours ago)
Sep-26 @ 12:00 UTC
(in 19 hours)
Expired Click to View Sep-25 @ 12:00 to Sep-25 @ 15:00
TAF LKCV 251100Z 2512/2612 31011KT 9999 SCT040
Wind Visibility Clouds
310° at 11 knots 10,000+ meters
  • Scattered at 4,000' AGL
Expired Click to View Sep-25 @ 12:00 to Sep-25 @ 15:00
PROB30 TEMPO 2512/2515 31016KT SHRA SCT030TCU
Wind Clouds Conditions
310° at 16 knots
  • Scattered at 3,000' AGL
  • Rain
Becoming Sep-25 @ 15:00 to Sep-25 @ 23:00
BECMG 2515/2518 35006KT CAVOK
Wind Visibility Clouds Conditions
350° at 6 knots 10,000+ meters
  • No significant clouds
Becoming Sep-25 @ 23:00 to Sep-26 @ 12:00
BECMG 2523/2602 VRB02KT
Wind Visibility Clouds Conditions
Variable at 2 knots 10,000+ meters
  • No significant clouds
TAF LKCV 251100Z 2512/2612 31011KT 9999 SCT040 PROB30 TEMPO 2512/2515 31016KT SHRA SCT030TCU BECMG 2515/2518 35006KT CAVOK BECMG 2523/2602 VRB02KT
Issued Sep-25 @ 11:00 UTC
(6 hours ago)
Valid From Sep-25 @ 12:00 UTC
(5 hours ago)
Valid To Sep-26 @ 12:00 UTC
(in 19 hours)
Sep-25 @ 12:00 - Sep-25 @ 15:00
Wind Visibility
310° at 11 knots 10,000+ meters
Clouds
  • Scattered at 4,000' AGL
Sep-25 @ 12:00 - Sep-25 @ 15:00
Wind
310° at 16 knots
Clouds
  • Scattered at 3,000' AGL
Conditions
  • Rain
Becoming Sep-25 @ 15:00 - Sep-25 @ 23:00
Wind Visibility
350° at 6 knots 10,000+ meters
Clouds
  • No significant clouds
Conditions
Becoming Sep-25 @ 23:00 - Sep-26 @ 12:00
Wind Visibility
Variable at 2 knots 10,000+ meters
Clouds
  • No significant clouds
Conditions